createdAt,value
2018-12-06T00:02:46.570Z,1.00
2018-12-06T00:13:52.214Z,0.93
2018-12-06T00:19:05.421Z,1.25
2018-12-06T00:24:08.178Z,1.25
2018-12-06T00:29:10.715Z,1.02
2018-12-06T00:34:13.365Z,1.07
2018-12-06T00:39:15.983Z,1.20
2018-12-06T00:44:18.462Z,1.03
2018-12-06T00:49:20.938Z,1.23
2018-12-06T00:54:23.427Z,1.20
2018-12-06T00:59:25.902Z,1.33
2018-12-06T01:04:28.710Z,1.20
2018-12-06T01:09:31.421Z,1.03
2018-12-06T01:14:41.281Z,1.17
2018-12-06T01:19:43.782Z,1.42
2018-12-06T01:24:46.418Z,1.10
2018-12-06T01:29:48.930Z,1.12
2018-12-06T01:34:51.654Z,1.10
2018-12-06T01:39:54.366Z,1.12
2018-12-06T01:44:56.841Z,1.02
2018-12-06T01:49:59.326Z,1.00
2018-12-06T01:55:01.841Z,1.07
2018-12-06T02:00:06.158Z,1.00
2018-12-06T02:05:08.873Z,1.17
2018-12-06T02:10:11.398Z,0.90
2018-12-06T02:15:13.958Z,1.00
2018-12-06T02:20:16.458Z,0.90
2018-12-06T02:25:18.981Z,0.80
2018-12-06T02:30:21.735Z,0.90
2018-12-06T02:35:24.266Z,1.10
2018-12-06T02:40:26.746Z,1.20
2018-12-06T02:45:29.326Z,1.00
2018-12-06T02:50:31.830Z,1.10
2018-12-06T02:55:34.738Z,0.88
2018-12-06T03:00:37.302Z,1.00
2018-12-06T03:05:39.807Z,1.00
2018-12-06T03:10:42.305Z,0.93
2018-12-06T03:15:45.008Z,0.80
2018-12-06T03:20:47.549Z,1.03
2018-12-06T03:25:50.039Z,1.20
2018-12-06T03:30:52.526Z,0.90
2018-12-06T03:35:55.046Z,0.93
2018-12-06T03:40:57.623Z,0.80
2018-12-06T03:46:00.113Z,1.10
2018-12-06T03:51:03.247Z,0.80
2018-12-06T03:56:05.726Z,0.77
2018-12-06T04:01:09.002Z,0.97
2018-12-06T04:06:11.478Z,1.03
2018-12-06T04:11:13.991Z,0.80
2018-12-06T04:16:16.626Z,1.20
2018-12-06T04:21:19.121Z,0.90
2018-12-06T04:26:21.649Z,0.83
2018-12-06T04:31:24.790Z,1.00
2018-12-06T04:36:27.295Z,0.80
2018-12-06T04:41:29.790Z,0.93
2018-12-06T04:46:32.266Z,1.00
2018-12-06T04:51:34.787Z,0.75
2018-12-06T04:56:37.276Z,0.80
2018-12-06T05:01:39.786Z,0.70
2018-12-06T05:06:42.261Z,0.83
2018-12-06T05:11:44.878Z,0.62
2018-12-06T05:16:47.430Z,0.90
2018-12-06T05:21:50.020Z,0.90
2018-12-06T05:26:52.970Z,1.05
2018-12-06T05:31:55.455Z,0.70
2018-12-06T05:36:58.054Z,1.00
2018-12-06T05:42:00.854Z,0.70
2018-12-06T05:47:03.366Z,0.80
2018-12-06T05:52:05.842Z,0.73
2018-12-06T05:57:08.788Z,0.87
2018-12-06T06:02:11.262Z,1.03
2018-12-06T06:07:13.926Z,0.97
2018-12-06T06:12:16.403Z,0.93
2018-12-06T06:17:18.990Z,0.90
2018-12-06T06:22:21.749Z,0.97
2018-12-06T06:27:26.212Z,0.78
2018-12-06T06:32:28.906Z,0.70
2018-12-06T06:37:31.406Z,0.93
2018-12-06T06:42:33.888Z,0.80
2018-12-06T06:47:36.392Z,0.70
2018-12-06T06:52:39.754Z,0.80
2018-12-06T06:57:42.402Z,0.67
2018-12-06T07:02:44.904Z,0.87
2018-12-06T07:07:47.378Z,0.90
2018-12-06T07:12:50.006Z,0.70
2018-12-06T07:17:52.509Z,0.90
2018-12-06T07:22:55.014Z,0.50
2018-12-06T07:27:57.494Z,0.80
2018-12-06T07:32:59.998Z,0.82
2018-12-06T07:38:02.638Z,0.70
2018-12-06T07:43:05.163Z,1.00
2018-12-06T07:48:07.834Z,1.80
2018-12-06T07:53:10.336Z,2.90
2018-12-06T07:58:12.806Z,2.53
2018-12-06T08:03:15.303Z,2.37
2018-12-06T08:08:17.911Z,2.63
2018-12-06T08:13:20.382Z,2.10
2018-12-06T08:18:22.886Z,2.00
2018-12-06T08:23:25.370Z,2.73
2018-12-06T08:28:27.873Z,2.63
2018-12-06T08:33:30.374Z,2.73
2018-12-06T08:38:32.849Z,2.00
2018-12-06T08:43:35.350Z,2.13
2018-12-06T08:48:38.118Z,1.70
2018-12-06T08:53:40.598Z,1.77
2018-12-06T08:58:43.097Z,2.03
2018-12-06T09:03:45.618Z,1.87
2018-12-06T09:08:48.090Z,2.15
2018-12-06T09:13:50.600Z,1.80
2018-12-06T09:18:53.122Z,1.23
2018-12-06T09:23:55.662Z,1.50
2018-12-06T09:28:58.158Z,1.33
2018-12-06T09:34:04.397Z,1.40
2018-12-06T09:39:07.531Z,1.60
2018-12-06T09:44:10.065Z,1.43
2018-12-06T09:49:13.426Z,1.73
2018-12-06T09:54:15.902Z,1.50
2018-12-06T09:59:18.457Z,1.30
2018-12-06T10:04:21.353Z,1.77
2018-12-06T10:09:23.954Z,1.50
2018-12-06T10:14:26.426Z,1.82
2018-12-06T10:19:28.905Z,1.40
2018-12-06T10:24:31.851Z,1.37
2018-12-06T10:29:34.323Z,1.20
2018-12-06T10:34:36.817Z,1.70
2018-12-06T10:39:39.343Z,1.43
2018-12-06T10:44:41.819Z,1.62
2018-12-06T10:49:44.301Z,1.32
2018-12-06T10:54:46.778Z,1.50
2018-12-06T10:59:49.283Z,1.30
2018-12-06T11:04:51.753Z,1.17
2018-12-06T11:09:54.233Z,1.37
2018-12-06T11:14:56.735Z,1.70
2018-12-06T11:19:59.245Z,1.20
2018-12-06T11:25:02.390Z,1.30
2018-12-06T11:30:06.036Z,1.57
2018-12-06T11:35:08.715Z,1.33
2018-12-06T11:40:11.579Z,1.20
2018-12-06T11:45:14.179Z,1.40
2018-12-06T11:50:16.765Z,1.47
2018-12-06T11:55:19.886Z,1.27
2018-12-06T12:00:22.628Z,1.17
2018-12-06T12:05:25.130Z,1.00
2018-12-06T12:10:27.610Z,1.07
2018-12-06T12:15:30.119Z,0.97
2018-12-06T12:20:32.998Z,1.22
2018-12-06T12:25:35.530Z,0.80
2018-12-06T12:30:38.590Z,1.20
2018-12-06T12:35:41.314Z,1.00
2018-12-06T12:40:43.946Z,1.00
2018-12-06T12:45:46.782Z,1.57
2018-12-06T12:50:49.717Z,1.45
2018-12-06T12:55:52.238Z,0.90
2018-12-06T13:00:54.710Z,0.85
2018-12-06T13:05:57.188Z,0.82
2018-12-06T13:10:59.666Z,1.17
2018-12-06T13:16:02.193Z,1.10
2018-12-06T13:21:04.730Z,1.10
2018-12-06T13:26:07.206Z,1.03
2018-12-06T13:31:09.687Z,0.93
2018-12-06T13:36:12.363Z,1.00
2018-12-06T13:41:14.898Z,1.12
2018-12-06T13:46:17.378Z,1.62
2018-12-06T13:51:19.938Z,1.17
2018-12-06T13:56:22.957Z,0.98
2018-12-06T14:01:25.606Z,1.00
2018-12-06T14:06:28.332Z,0.80
2018-12-06T14:11:31.503Z,1.27
2018-12-06T14:16:34.009Z,1.37
2018-12-06T14:21:36.482Z,0.70
2018-12-06T14:26:38.958Z,1.02
2018-12-06T14:31:41.438Z,0.95
2018-12-06T14:36:44.582Z,0.90
2018-12-06T14:41:47.118Z,1.43
2018-12-06T14:46:49.614Z,1.10
2018-12-06T14:51:52.242Z,1.00
2018-12-06T14:56:54.718Z,1.55
2018-12-06T15:01:57.242Z,0.93
2018-12-06T15:06:59.746Z,0.95
2018-12-06T15:12:02.456Z,1.10
2018-12-06T15:17:05.070Z,0.72
2018-12-06T15:22:07.638Z,1.30
2018-12-06T15:27:11.406Z,0.82
2018-12-06T15:32:13.970Z,0.90
2018-12-06T15:37:16.461Z,0.90
2018-12-06T15:42:18.954Z,0.93
2018-12-06T15:47:21.445Z,1.20
2018-12-06T15:52:24.011Z,1.17
2018-12-06T15:57:26.534Z,0.70
2018-12-06T16:02:29.135Z,0.85
2018-12-06T16:07:31.725Z,1.10
2018-12-06T16:12:34.219Z,4.00
2018-12-06T16:17:36.816Z,9.08
2018-12-06T16:22:39.346Z,10.00
2018-12-06T16:27:41.838Z,10.45
2018-12-06T16:32:44.314Z,11.28
2018-12-06T16:37:47.548Z,10.88
2018-12-06T16:42:50.830Z,10.08
2018-12-06T16:47:53.314Z,11.70
2018-12-06T16:52:55.825Z,12.37
2018-12-06T16:57:58.391Z,12.18
2018-12-06T17:03:00.980Z,13.70
2018-12-06T17:08:03.566Z,16.07
2018-12-06T17:13:06.084Z,22.50
2018-12-06T17:18:08.662Z,29.85
2018-12-06T17:23:11.250Z,28.83
2018-12-06T17:28:13.851Z,28.40
2018-12-06T17:33:16.357Z,26.15
2018-12-06T17:38:18.934Z,24.37
2018-12-06T17:43:22.035Z,22.13
2018-12-06T17:48:24.635Z,19.85
2018-12-06T17:53:27.234Z,19.50
2018-12-06T17:58:29.817Z,18.07
2018-12-06T18:03:32.306Z,17.00
2018-12-06T18:08:34.906Z,15.35
2018-12-06T18:13:37.497Z,17.75
2018-12-06T18:18:40.523Z,21.90
2018-12-06T18:23:44.022Z,19.98
2018-12-06T18:28:46.614Z,20.97
2018-12-06T18:33:49.722Z,19.82
2018-12-06T18:38:52.315Z,19.95
2018-12-06T18:43:54.927Z,19.70
2018-12-06T18:48:57.844Z,18.73
2018-12-06T18:54:00.410Z,16.80
2018-12-06T18:59:02.995Z,14.95
2018-12-06T19:04:05.700Z,13.40
2018-12-06T19:09:08.290Z,13.55
2018-12-06T19:14:10.882Z,14.20
2018-12-06T19:19:13.423Z,12.85
2018-12-06T19:24:16.026Z,11.70
2018-12-06T19:29:18.549Z,11.10
2018-12-06T19:34:21.158Z,10.48
2018-12-06T19:39:23.749Z,9.60
2018-12-06T19:44:26.257Z,9.30
2018-12-06T19:49:28.980Z,9.28
2018-12-06T19:54:32.883Z,8.80
2018-12-06T19:59:35.426Z,7.62
2018-12-06T20:04:38.301Z,8.07
2018-12-06T20:09:40.861Z,7.60
2018-12-06T20:14:43.374Z,7.45
2018-12-06T20:19:45.933Z,6.30
2018-12-06T20:24:48.462Z,6.47
2018-12-06T20:29:51.021Z,6.55
2018-12-06T20:34:53.494Z,5.57
2018-12-06T20:39:56.121Z,5.70
2018-12-06T20:44:58.701Z,5.07
2018-12-06T20:50:01.202Z,5.40
2018-12-06T20:55:03.994Z,4.83
2018-12-06T21:00:06.794Z,4.93
2018-12-06T21:05:09.471Z,4.27
2018-12-06T21:10:12.185Z,4.53
2018-12-06T21:15:14.786Z,4.72
2018-12-06T21:20:17.378Z,4.73
2018-12-06T21:25:19.865Z,4.67
2018-12-06T21:30:22.567Z,4.30
2018-12-06T21:35:25.158Z,5.10
2018-12-06T21:40:27.759Z,4.50
2018-12-06T21:45:30.350Z,4.63
2018-12-06T21:50:32.994Z,4.47
2018-12-06T21:55:35.543Z,3.72
2018-12-06T22:00:38.129Z,3.87
2018-12-06T22:05:40.631Z,4.25
2018-12-06T22:10:43.222Z,4.33
2018-12-06T22:15:45.816Z,4.20
2018-12-06T22:20:48.431Z,3.62
2018-12-06T22:25:50.995Z,4.00
2018-12-06T22:30:53.511Z,3.77
2018-12-06T22:35:56.082Z,3.80
2018-12-06T22:40:58.711Z,3.73
2018-12-06T22:46:01.270Z,3.97
2018-12-06T22:51:03.914Z,3.37
2018-12-06T22:56:06.563Z,3.57
2018-12-06T23:01:10.994Z,3.00
2018-12-06T23:06:13.804Z,3.35
2018-12-06T23:11:16.316Z,3.50
2018-12-06T23:16:18.892Z,3.07
2018-12-06T23:21:21.481Z,3.80
2018-12-06T23:26:24.071Z,3.08
2018-12-06T23:31:26.562Z,3.53
2018-12-06T23:36:29.065Z,2.87
2018-12-06T23:41:31.606Z,3.27
2018-12-06T23:46:34.137Z,2.47
2018-12-06T23:51:37.385Z,2.72
2018-12-06T23:56:39.947Z,3.07
